Springfield, OH (45505)

4:49 AM EST on January 28, 2015 (GMT -0500)
Werner Ent. Springfield, OH | Change Station
CLOSE
Current Station
Personal Weather Station
Location: Springfield, OH
Elevation: 1048 ft
Nearby Weather Stations

Elev 1048 ft 39.90 °N, 83.73 °W | Updated 10 seconds ago

Partly Cloudy
Partly Cloudy
8.4 °F
Feels Like 8 °F
N
0.0
Wind Variable Wind from NNW
Gusts 1.0 mph

Today
High -- | Low -- °F
--% Chance of Precip.
Yesterday
High -- | Low -- °F
Precip. -- in
7:47 AM 5:49 PM
Waxing Gibbous, 63% visible
Pressure 30.34 in
Visibility 4.0 miles
Clouds Clear
Windchill 8 °F
Dew Point 6 °F
Humidity 88%
Rainfall 0.00 in
Snow Depth Not available.
UV 0.0 out of 12
Pollen .10 out of 12
Air Quality Not available.
Flu Activity Not available.
METAR KSGH 280856Z AUTO 00000KT 4SM BR CLR M16/M17 A3028 RMK AO2 53016 T11551172 SLP273

More Conditions Fewer Conditions

Pressure 30.34 in
Visibility 4.0 miles
Clouds Clear
Windchill 8 °F
Dew Point 6 °F
Humidity 88%
Rainfall 0.00 in
Snow Depth Not available.
UV 0.0 out of 12
Pollen .10 out of 12
Air Quality Not available.
Flu Activity Not available.
METAR KSGH 280856Z AUTO 00000KT 4SM BR CLR M16/M17 A3028 RMK AO2 53016 T11551172 SLP273

More Conditions Fewer Conditions

10-Day Weather Forecast

Almanac

Astronomy

Jan. 28, 2015 Rise Set
Actual Time
Civil Twilight
Nautical Twilight
Astronomical Twilight
Moon
Length of Visible Light
Length of Day
Tomorrow will be .
, % of the Moon is Illuminated

Today's Extremes

State Highs State Lows

Community

WunderPhotos

Upload Photos

1,791,120 photos uploaded!

WunderBlogs® & News

Nearby

Air Quality

  Air Quality AQ Index Pollutant
Not available.

Snow Depth

Station Depth Elevation

Earthquake Activity

City Distance Mag. Time & Date
Minimum magnitude displayed is 2.5.

Coastal Water Temperatures

Place Temperature

Nearby Weather Stations